createdAt,value
2022-08-30T00:00:56.867Z,2.10
2022-08-30T00:01:56.847Z,2.00
2022-08-30T00:02:57.075Z,1.70
2022-08-30T00:03:56.901Z,1.90
2022-08-30T00:04:56.845Z,2.00
2022-08-30T00:05:56.815Z,1.80
2022-08-30T00:06:56.795Z,1.90
2022-08-30T00:07:56.806Z,2.20
2022-08-30T00:08:56.767Z,2.10
2022-08-30T00:09:56.735Z,2.00
2022-08-30T00:10:56.802Z,1.70
2022-08-30T00:11:56.735Z,2.20
2022-08-30T00:12:56.784Z,1.90
2022-08-30T00:13:56.730Z,1.90
2022-08-30T00:14:56.694Z,2.10
2022-08-30T00:15:56.766Z,2.10
2022-08-30T00:16:56.684Z,2.00
2022-08-30T00:17:56.661Z,2.00
2022-08-30T00:18:56.668Z,1.70
2022-08-30T00:19:56.624Z,2.10
2022-08-30T00:20:56.572Z,2.10
2022-08-30T00:21:56.660Z,1.70
2022-08-30T00:22:56.602Z,2.00
2022-08-30T00:23:56.591Z,1.80
2022-08-30T00:24:56.542Z,1.80
2022-08-30T00:25:56.563Z,2.00
2022-08-30T00:26:56.590Z,1.80
2022-08-30T00:27:56.534Z,1.70
2022-08-30T00:28:56.488Z,2.10
2022-08-30T00:29:56.499Z,2.10
2022-08-30T00:30:56.540Z,1.90
2022-08-30T00:31:56.499Z,2.10
2022-08-30T00:32:56.529Z,2.10
2022-08-30T00:33:56.779Z,2.40
2022-08-30T00:34:56.462Z,2.00
2022-08-30T00:35:56.386Z,2.00
2022-08-30T00:36:56.478Z,2.00
2022-08-30T00:37:56.398Z,1.90
2022-08-30T00:38:56.407Z,1.90
2022-08-30T00:39:56.414Z,2.60
2022-08-30T00:40:56.386Z,1.90
2022-08-30T00:41:56.400Z,1.80
2022-08-30T00:42:59.220Z,1.90
2022-08-30T00:43:56.398Z,2.00
2022-08-30T00:44:56.296Z,1.90
2022-08-30T00:45:56.344Z,1.90
2022-08-30T00:46:56.281Z,1.80
2022-08-30T00:47:56.322Z,1.90
2022-08-30T00:48:56.287Z,1.90
2022-08-30T00:49:56.249Z,1.80
2022-08-30T00:50:56.205Z,1.90
2022-08-30T00:51:56.216Z,1.70
2022-08-30T00:52:56.166Z,1.80
2022-08-30T00:53:56.195Z,2.30
2022-08-30T00:54:56.175Z,1.90
2022-08-30T00:55:56.850Z,2.00
2022-08-30T00:56:56.155Z,1.70
2022-08-30T00:57:56.155Z,1.80
2022-08-30T00:58:56.275Z,2.00
2022-08-30T00:59:56.161Z,1.90
2022-08-30T01:00:56.103Z,1.90
2022-08-30T01:01:56.182Z,1.90
2022-08-30T01:02:56.117Z,2.00
2022-08-30T01:03:56.134Z,2.10
2022-08-30T01:04:56.031Z,1.90
2022-08-30T01:05:56.074Z,2.00
2022-08-30T01:06:56.004Z,2.00
2022-08-30T01:07:55.985Z,2.00
2022-08-30T01:08:55.971Z,2.00
2022-08-30T01:09:55.981Z,2.00
2022-08-30T01:10:56.043Z,2.10
2022-08-30T01:11:56.007Z,2.20
2022-08-30T01:12:55.920Z,2.00
2022-08-30T01:13:55.911Z,2.20
2022-08-30T01:14:55.942Z,2.30
2022-08-30T01:15:55.989Z,2.20
2022-08-30T01:16:55.945Z,2.00
2022-08-30T01:17:55.889Z,2.00
2022-08-30T01:18:55.845Z,2.10
2022-08-30T01:19:55.838Z,2.10
2022-08-30T01:20:55.849Z,2.30
2022-08-30T01:21:55.872Z,2.20
2022-08-30T01:22:55.816Z,2.20
2022-08-30T01:23:55.779Z,2.20
2022-08-30T01:24:55.778Z,2.20
2022-08-30T01:25:55.767Z,2.20
2022-08-30T01:26:55.778Z,2.00
2022-08-30T01:27:55.769Z,2.10
2022-08-30T01:28:55.737Z,2.20
2022-08-30T01:29:55.723Z,2.40
2022-08-30T01:30:55.750Z,2.30
2022-08-30T01:31:55.771Z,2.40
2022-08-30T01:32:56.438Z,2.20
2022-08-30T01:33:55.646Z,2.20
2022-08-30T01:34:55.695Z,2.00
2022-08-30T01:35:55.684Z,2.20
2022-08-30T01:36:55.708Z,1.90
2022-08-30T01:37:55.670Z,2.20
2022-08-30T01:38:55.655Z,2.10
2022-08-30T01:39:55.572Z,2.20
2022-08-30T01:40:55.620Z,2.30
2022-08-30T01:41:55.594Z,2.40
2022-08-30T01:42:55.586Z,2.20
2022-08-30T01:43:55.554Z,2.10
2022-08-30T01:44:55.514Z,2.10
2022-08-30T01:45:55.541Z,2.20
2022-08-30T01:46:55.529Z,2.30
2022-08-30T01:47:55.500Z,2.10
2022-08-30T01:48:55.530Z,2.30
2022-08-30T01:49:55.474Z,2.30
2022-08-30T01:50:55.445Z,2.10
2022-08-30T01:52:00.702Z,2.00
2022-08-30T01:52:56.534Z,1.90
2022-08-30T01:53:55.421Z,2.10
2022-08-30T01:54:55.413Z,2.30
2022-08-30T01:55:55.446Z,2.30
2022-08-30T01:56:55.381Z,2.20
2022-08-30T01:57:55.360Z,2.10
2022-08-30T01:58:59.191Z,2.30
2022-08-30T01:59:56.429Z,2.30
2022-08-30T02:00:55.413Z,2.10
2022-08-30T02:01:55.360Z,2.20
2022-08-30T02:02:55.310Z,2.20
2022-08-30T02:03:55.463Z,2.10
2022-08-30T02:04:55.311Z,2.40
2022-08-30T02:05:55.261Z,2.20
2022-08-30T02:06:55.327Z,2.30
2022-08-30T02:07:55.257Z,2.50
2022-08-30T02:08:55.187Z,2.50
2022-08-30T02:09:55.258Z,2.30
2022-08-30T02:10:55.178Z,2.20
2022-08-30T02:11:55.198Z,2.20
2022-08-30T02:12:55.166Z,2.40
2022-08-30T02:13:55.128Z,2.40
2022-08-30T02:14:55.181Z,2.40
2022-08-30T02:15:55.140Z,2.20
2022-08-30T02:16:55.157Z,2.30
2022-08-30T02:17:55.106Z,2.50
2022-08-30T02:18:55.145Z,2.40
2022-08-30T02:19:55.074Z,2.30
2022-08-30T02:20:55.151Z,2.30
2022-08-30T02:21:55.074Z,2.70
2022-08-30T02:22:56.732Z,2.30
2022-08-30T02:23:55.066Z,2.30
2022-08-30T02:24:55.072Z,2.40
2022-08-30T02:25:54.974Z,2.20
2022-08-30T02:26:54.954Z,2.10
2022-08-30T02:27:54.975Z,2.70
2022-08-30T02:28:54.995Z,2.50
2022-08-30T02:29:54.994Z,2.10
2022-08-30T02:30:55.008Z,2.50
2022-08-30T02:31:54.945Z,2.30
2022-08-30T02:32:54.907Z,2.40
2022-08-30T02:33:54.980Z,2.10
2022-08-30T02:34:54.865Z,2.40
2022-08-30T02:35:54.853Z,2.30
2022-08-30T02:36:54.843Z,2.30
2022-08-30T02:37:54.843Z,2.40
2022-08-30T02:38:54.802Z,1.90
2022-08-30T02:39:54.827Z,2.10
2022-08-30T02:40:54.765Z,2.20
2022-08-30T02:41:54.842Z,2.30
2022-08-30T02:42:54.801Z,2.20
2022-08-30T02:43:54.761Z,2.00
2022-08-30T02:44:54.732Z,2.30
2022-08-30T02:45:54.846Z,2.20
2022-08-30T02:46:54.720Z,2.30
2022-08-30T02:47:54.675Z,2.20
2022-08-30T02:48:54.691Z,2.10
2022-08-30T02:49:54.714Z,2.00
2022-08-30T02:50:54.659Z,1.90
2022-08-30T02:51:54.669Z,2.70
2022-08-30T02:52:55.424Z,2.10
2022-08-30T02:53:54.679Z,2.10
2022-08-30T02:54:54.630Z,2.00
2022-08-30T02:55:54.598Z,2.30
2022-08-30T02:56:54.657Z,2.10
2022-08-30T02:57:54.573Z,2.50
2022-08-30T02:58:54.568Z,2.00
2022-08-30T02:59:54.599Z,2.30
2022-08-30T03:00:54.549Z,2.10
2022-08-30T03:01:54.539Z,2.10
2022-08-30T03:02:54.517Z,2.30
2022-08-30T03:03:54.585Z,2.00
2022-08-30T03:04:54.548Z,2.50
2022-08-30T03:05:54.471Z,2.40
2022-08-30T03:06:54.434Z,2.30
2022-08-30T03:07:54.458Z,2.60
2022-08-30T03:08:54.426Z,2.40
2022-08-30T03:09:55.165Z,2.20
2022-08-30T03:10:54.405Z,2.50
2022-08-30T03:11:54.391Z,2.60
2022-08-30T03:12:54.415Z,2.60
2022-08-30T03:13:54.421Z,2.20
2022-08-30T03:14:54.414Z,2.60
2022-08-30T03:15:54.325Z,2.70
2022-08-30T03:16:54.442Z,2.30
2022-08-30T03:17:54.354Z,2.40
2022-08-30T03:18:54.283Z,2.30
2022-08-30T03:19:54.343Z,2.30
2022-08-30T03:20:55.015Z,2.30
2022-08-30T03:21:54.246Z,2.50
2022-08-30T03:22:54.252Z,2.10
2022-08-30T03:23:54.226Z,2.30
2022-08-30T03:24:54.242Z,2.10
2022-08-30T03:25:54.199Z,2.20
2022-08-30T03:26:54.252Z,2.70
2022-08-30T03:27:54.209Z,2.50
2022-08-30T03:28:54.221Z,2.40
2022-08-30T03:29:54.181Z,2.60
2022-08-30T03:30:54.120Z,2.50
2022-08-30T03:31:54.140Z,2.50
2022-08-30T03:32:54.139Z,2.40
2022-08-30T03:33:54.089Z,2.20
2022-08-30T03:34:54.109Z,2.60
2022-08-30T03:35:54.079Z,2.80
2022-08-30T03:36:54.068Z,2.50
2022-08-30T03:37:56.130Z,2.70
2022-08-30T03:38:54.048Z,2.40
2022-08-30T03:39:54.087Z,2.60
2022-08-30T03:40:54.018Z,2.50
2022-08-30T03:41:54.057Z,2.70
2022-08-30T03:42:54.120Z,2.30
2022-08-30T03:43:53.989Z,2.80
2022-08-30T03:44:54.977Z,2.40
2022-08-30T03:45:54.005Z,2.70
2022-08-30T03:46:53.996Z,2.50
2022-08-30T03:47:53.938Z,2.40
2022-08-30T03:48:53.974Z,2.60
2022-08-30T03:49:53.907Z,2.20
2022-08-30T03:50:53.945Z,2.40
2022-08-30T03:51:53.916Z,2.50
2022-08-30T03:52:53.837Z,2.70
2022-08-30T03:53:53.877Z,2.30
2022-08-30T03:54:54.575Z,2.70
2022-08-30T03:55:53.815Z,2.80
2022-08-30T03:56:53.815Z,2.20
2022-08-30T03:57:53.789Z,2.50
2022-08-30T03:58:53.788Z,2.80
2022-08-30T03:59:53.856Z,2.30
2022-08-30T04:00:53.857Z,2.80
2022-08-30T04:01:53.817Z,2.90
2022-08-30T04:02:53.731Z,2.60
2022-08-30T04:03:53.702Z,2.50
2022-08-30T04:04:53.704Z,2.50
2022-08-30T04:05:53.671Z,2.50
2022-08-30T04:06:53.723Z,2.50
2022-08-30T04:07:53.649Z,2.70
2022-08-30T04:08:53.691Z,2.70
2022-08-30T04:09:53.622Z,2.70
2022-08-30T04:10:53.620Z,2.50
2022-08-30T04:11:53.601Z,2.50
2022-08-30T04:12:53.605Z,2.60
2022-08-30T04:13:53.637Z,2.80
2022-08-30T04:14:53.634Z,2.40
2022-08-30T04:15:53.562Z,2.40
2022-08-30T04:16:53.592Z,2.50
2022-08-30T04:17:53.609Z,2.10
2022-08-30T04:18:53.519Z,2.50
2022-08-30T04:19:53.559Z,2.80
2022-08-30T04:20:53.549Z,2.50
2022-08-30T04:21:53.548Z,2.90
2022-08-30T04:22:53.479Z,2.30
2022-08-30T04:23:53.487Z,2.70
2022-08-30T04:24:53.535Z,3.00
2022-08-30T04:25:53.485Z,2.70
2022-08-30T04:26:53.471Z,2.30
2022-08-30T04:27:53.393Z,2.60
2022-08-30T04:28:53.377Z,2.20
2022-08-30T04:29:53.386Z,2.30
2022-08-30T04:30:53.395Z,2.80
2022-08-30T04:31:53.465Z,2.60
2022-08-30T04:32:58.087Z,2.10
2022-08-30T04:33:54.355Z,2.20
2022-08-30T04:34:53.347Z,2.50
2022-08-30T04:35:53.287Z,2.50
2022-08-30T04:36:53.297Z,2.40
2022-08-30T04:37:53.277Z,2.50
2022-08-30T04:38:53.318Z,2.40
2022-08-30T04:39:53.290Z,2.80
2022-08-30T04:40:53.252Z,2.60
2022-08-30T04:41:53.207Z,2.90
2022-08-30T04:42:53.233Z,2.30
2022-08-30T04:43:53.206Z,2.50
2022-08-30T04:44:53.178Z,2.50
2022-08-30T04:45:53.260Z,2.90
2022-08-30T04:46:53.154Z,2.30
2022-08-30T04:47:53.132Z,2.60
2022-08-30T04:48:53.194Z,2.40
2022-08-30T04:49:53.126Z,2.40
2022-08-30T04:50:54.054Z,2.60
2022-08-30T04:51:53.117Z,2.50
2022-08-30T04:52:53.099Z,2.60
2022-08-30T04:53:53.093Z,2.30
2022-08-30T04:54:53.100Z,2.50
2022-08-30T04:55:53.062Z,2.50
2022-08-30T04:56:53.035Z,2.20
2022-08-30T04:57:53.013Z,2.80
2022-08-30T04:58:52.997Z,2.60
2022-08-30T04:59:53.173Z,2.60
2022-08-30T05:00:53.009Z,2.70
2022-08-30T05:01:52.979Z,2.20
2022-08-30T05:02:52.953Z,2.40
2022-08-30T05:03:52.948Z,2.40
2022-08-30T05:04:52.952Z,2.80
2022-08-30T05:05:52.928Z,2.60
2022-08-30T05:06:52.893Z,2.90
2022-08-30T05:07:52.869Z,2.50
2022-08-30T05:08:52.899Z,2.80
2022-08-30T05:09:52.889Z,2.90
2022-08-30T05:10:52.839Z,2.40
2022-08-30T05:11:52.840Z,2.70
2022-08-30T05:12:52.993Z,2.70
2022-08-30T05:13:52.809Z,2.60
2022-08-30T05:14:52.797Z,2.50
2022-08-30T05:15:52.854Z,2.80
2022-08-30T05:16:52.778Z,2.70
2022-08-30T05:17:52.747Z,2.80
2022-08-30T05:18:52.736Z,2.40
2022-08-30T05:19:52.727Z,2.70
2022-08-30T05:20:52.726Z,2.60
2022-08-30T05:21:52.716Z,2.70
2022-08-30T05:22:53.441Z,2.60
2022-08-30T05:23:52.687Z,2.60
2022-08-30T05:24:52.713Z,2.60
2022-08-30T05:25:53.605Z,2.40
2022-08-30T05:26:52.651Z,2.50
2022-08-30T05:27:52.651Z,2.60
2022-08-30T05:28:52.624Z,2.80
2022-08-30T05:29:52.642Z,2.50
2022-08-30T05:30:52.606Z,2.60
2022-08-30T05:31:52.622Z,2.70
2022-08-30T05:32:52.805Z,2.80
2022-08-30T05:33:52.603Z,2.40
2022-08-30T05:34:52.579Z,2.90
2022-08-30T05:35:52.553Z,2.80
2022-08-30T05:36:52.542Z,2.30
2022-08-30T05:37:52.507Z,2.70
2022-08-30T05:38:52.471Z,2.70
2022-08-30T05:39:52.472Z,2.50
2022-08-30T05:40:52.610Z,2.90
2022-08-30T05:41:52.481Z,2.60
2022-08-30T05:42:52.474Z,2.70
2022-08-30T05:43:52.444Z,2.80
2022-08-30T05:44:52.443Z,2.60
2022-08-30T05:45:53.382Z,3.00
2022-08-30T05:46:52.403Z,2.60
2022-08-30T05:47:52.369Z,2.60
2022-08-30T05:48:52.401Z,2.70
2022-08-30T05:49:52.458Z,2.60
2022-08-30T05:50:52.409Z,3.10
2022-08-30T05:51:52.355Z,2.80
2022-08-30T05:52:52.319Z,2.70
2022-08-30T05:53:52.358Z,2.40
2022-08-30T05:54:52.275Z,2.80
2022-08-30T05:55:52.295Z,2.80
2022-08-30T05:56:52.286Z,2.70
2022-08-30T05:57:52.255Z,2.50
2022-08-30T05:58:52.246Z,2.90
2022-08-30T05:59:52.227Z,2.90
2022-08-30T06:00:52.234Z,2.70
2022-08-30T06:01:52.273Z,2.60
2022-08-30T06:02:52.258Z,2.80
2022-08-30T06:03:52.272Z,2.90
2022-08-30T06:04:52.175Z,3.00
2022-08-30T06:05:52.177Z,3.20
2022-08-30T06:06:52.134Z,2.80
2022-08-30T06:07:52.157Z,2.90
2022-08-30T06:08:52.148Z,2.60
2022-08-30T06:09:52.125Z,3.00
2022-08-30T06:10:52.104Z,3.00
2022-08-30T06:11:52.084Z,3.50
2022-08-30T06:12:52.076Z,3.20
2022-08-30T06:13:52.054Z,3.20
2022-08-30T06:14:52.060Z,2.80
2022-08-30T06:15:52.097Z,3.50
2022-08-30T06:16:53.574Z,3.00
2022-08-30T06:17:52.761Z,3.20
2022-08-30T06:18:52.022Z,2.90
2022-08-30T06:19:52.951Z,2.90
2022-08-30T06:20:51.933Z,2.60
2022-08-30T06:21:51.957Z,2.80
2022-08-30T06:22:52.872Z,2.80
2022-08-30T06:23:51.963Z,2.90
2022-08-30T06:24:57.420Z,3.00
2022-08-30T06:25:52.922Z,3.10
2022-08-30T06:26:51.915Z,3.30
2022-08-30T06:27:55.963Z,2.90
2022-08-30T06:28:51.894Z,2.90
2022-08-30T06:29:51.872Z,3.10
2022-08-30T06:30:51.906Z,3.00
2022-08-30T06:31:51.849Z,3.20
2022-08-30T06:32:51.781Z,3.00
2022-08-30T06:33:51.813Z,3.20
2022-08-30T06:34:51.790Z,3.10
2022-08-30T06:35:58.316Z,3.10
2022-08-30T06:36:52.770Z,3.10
2022-08-30T06:37:51.831Z,3.00
2022-08-30T06:38:51.760Z,3.00
2022-08-30T06:39:51.757Z,3.00
2022-08-30T06:40:51.723Z,2.90
2022-08-30T06:41:51.692Z,3.10
2022-08-30T06:42:51.687Z,3.10
2022-08-30T06:43:51.719Z,3.00
2022-08-30T06:44:52.367Z,3.20
2022-08-30T06:45:51.637Z,3.00
2022-08-30T06:46:51.689Z,3.10
2022-08-30T06:47:51.715Z,2.90
2022-08-30T06:48:51.742Z,2.70
2022-08-30T06:49:51.638Z,2.90
2022-08-30T06:50:51.546Z,2.80
2022-08-30T06:51:51.537Z,3.30
2022-08-30T06:52:51.552Z,2.70
2022-08-30T06:53:51.555Z,3.20
2022-08-30T06:54:51.528Z,3.20
2022-08-30T06:55:51.559Z,2.90
2022-08-30T06:56:59.049Z,3.10
2022-08-30T06:57:52.619Z,3.30
2022-08-30T06:58:51.485Z,3.20
2022-08-30T06:59:56.665Z,2.90
2022-08-30T07:00:52.536Z,3.10
2022-08-30T07:01:51.500Z,3.30
2022-08-30T07:02:51.439Z,2.80
2022-08-30T07:03:51.416Z,3.00
2022-08-30T07:04:51.388Z,3.40
2022-08-30T07:05:51.414Z,3.10
2022-08-30T07:06:51.363Z,3.10
2022-08-30T07:07:51.376Z,2.90
2022-08-30T07:08:54.778Z,3.10
2022-08-30T07:09:52.385Z,3.20
2022-08-30T07:10:52.085Z,3.00
2022-08-30T07:11:51.384Z,3.50
2022-08-30T07:12:51.356Z,3.20
2022-08-30T07:13:51.393Z,3.20
2022-08-30T07:14:51.264Z,3.20
2022-08-30T07:15:51.321Z,3.20
2022-08-30T07:16:52.175Z,3.30
2022-08-30T07:17:51.252Z,3.10
2022-08-30T07:18:51.294Z,3.40
2022-08-30T07:19:51.203Z,3.20
2022-08-30T07:20:51.180Z,2.80
2022-08-30T07:21:51.180Z,3.20
2022-08-30T07:22:51.254Z,3.00
2022-08-30T07:23:53.384Z,3.00
2022-08-30T07:24:51.152Z,3.10
2022-08-30T07:25:51.147Z,3.20
2022-08-30T07:26:51.150Z,2.90
2022-08-30T07:27:51.081Z,3.10
2022-08-30T07:28:52.323Z,3.10
2022-08-30T07:29:52.101Z,3.40
2022-08-30T07:30:51.089Z,3.80
2022-08-30T07:31:51.125Z,3.20
2022-08-30T07:32:51.040Z,3.20
2022-08-30T07:33:51.051Z,3.30
2022-08-30T07:34:51.746Z,3.70
2022-08-30T07:35:50.990Z,3.20
2022-08-30T07:36:50.988Z,3.20
2022-08-30T07:37:50.988Z,3.00
2022-08-30T07:38:50.988Z,3.00
2022-08-30T07:39:50.988Z,3.00
2022-08-30T07:40:50.905Z,3.00
2022-08-30T07:41:50.966Z,3.20
2022-08-30T07:42:50.895Z,3.20
2022-08-30T07:43:50.896Z,3.30
2022-08-30T07:44:54.712Z,3.40
2022-08-30T07:45:51.877Z,3.40
2022-08-30T07:46:51.156Z,3.00
2022-08-30T07:47:50.859Z,3.30
2022-08-30T07:48:51.036Z,3.10
2022-08-30T07:49:50.824Z,3.30
2022-08-30T07:50:53.721Z,3.60
2022-08-30T07:51:51.803Z,3.30
2022-08-30T07:52:51.227Z,3.60
2022-08-30T07:53:50.773Z,3.40
2022-08-30T07:54:52.840Z,3.20
2022-08-30T07:55:50.755Z,3.20
2022-08-30T07:56:50.800Z,3.00
2022-08-30T07:57:50.756Z,3.40
2022-08-30T07:58:50.693Z,3.10
2022-08-30T07:59:50.673Z,3.20
2022-08-30T08:00:50.741Z,3.50
2022-08-30T08:01:50.734Z,3.20
2022-08-30T08:02:50.672Z,3.40
2022-08-30T08:03:50.631Z,3.30
2022-08-30T08:04:50.652Z,3.40
2022-08-30T08:05:50.632Z,3.40
2022-08-30T08:06:50.573Z,3.20
2022-08-30T08:07:50.583Z,3.40
2022-08-30T08:08:50.666Z,3.50
2022-08-30T08:09:50.550Z,3.00
2022-08-30T08:10:50.583Z,2.80
2022-08-30T08:11:50.552Z,3.20
2022-08-30T08:12:50.560Z,3.50
2022-08-30T08:13:53.741Z,3.10
2022-08-30T08:14:51.471Z,3.20
2022-08-30T08:15:50.516Z,3.40
2022-08-30T08:16:50.508Z,3.30
2022-08-30T08:17:50.610Z,3.10
2022-08-30T08:18:50.504Z,3.60
2022-08-30T08:19:50.434Z,2.90
2022-08-30T08:20:50.449Z,2.90
2022-08-30T08:21:55.714Z,3.10
2022-08-30T08:22:51.419Z,3.10
2022-08-30T08:23:50.491Z,3.30
2022-08-30T08:24:50.351Z,2.90
2022-08-30T08:25:50.759Z,2.80
2022-08-30T08:26:50.363Z,3.10
2022-08-30T08:27:50.389Z,3.00
2022-08-30T08:28:50.319Z,3.10
2022-08-30T08:29:50.298Z,3.20
2022-08-30T08:30:50.351Z,3.70
2022-08-30T08:31:50.331Z,3.20
2022-08-30T08:32:50.282Z,2.90
2022-08-30T08:33:50.797Z,3.60
2022-08-30T08:34:50.392Z,3.00
2022-08-30T08:35:50.221Z,3.30
2022-08-30T08:36:50.250Z,3.30
2022-08-30T08:37:50.276Z,3.00
2022-08-30T08:38:50.204Z,3.70
2022-08-30T08:39:50.178Z,3.10
2022-08-30T08:40:50.146Z,3.00
2022-08-30T08:41:50.120Z,3.20
2022-08-30T08:42:50.148Z,3.70
2022-08-30T08:43:50.103Z,3.70
2022-08-30T08:44:50.099Z,3.40
2022-08-30T08:45:50.188Z,3.50
2022-08-30T08:46:50.085Z,3.80
2022-08-30T08:47:50.712Z,2.90
2022-08-30T08:49:05.241Z,3.20
2022-08-30T08:49:51.047Z,3.00
2022-08-30T08:50:50.025Z,3.20
2022-08-30T08:51:50.033Z,3.30
2022-08-30T08:52:50.014Z,3.20
2022-08-30T08:53:50.038Z,3.20
2022-08-30T08:54:49.986Z,3.20
2022-08-30T08:55:49.975Z,3.20
2022-08-30T08:56:49.954Z,3.40
2022-08-30T08:57:49.944Z,3.00
2022-08-30T08:58:49.926Z,3.40
2022-08-30T08:59:49.924Z,3.00
2022-08-30T09:00:49.892Z,3.40
2022-08-30T09:01:50.026Z,3.50
2022-08-30T09:02:52.749Z,3.50
2022-08-30T09:03:50.895Z,3.20
2022-08-30T09:04:49.892Z,3.40
2022-08-30T09:05:49.841Z,3.50
2022-08-30T09:06:49.802Z,3.60
2022-08-30T09:07:49.812Z,3.30
2022-08-30T09:08:50.142Z,3.10
2022-08-30T09:09:49.809Z,4.00
2022-08-30T09:10:51.065Z,3.50
2022-08-30T09:11:49.881Z,3.10
2022-08-30T09:12:49.747Z,3.50
2022-08-30T09:13:49.764Z,3.40
2022-08-30T09:14:49.710Z,3.50
2022-08-30T09:15:54.352Z,3.70
2022-08-30T09:16:50.695Z,3.00
2022-08-30T09:17:49.682Z,3.20
2022-08-30T09:18:54.453Z,3.20
2022-08-30T09:19:50.689Z,3.20
2022-08-30T09:20:49.689Z,3.20
2022-08-30T09:21:49.627Z,3.80
2022-08-30T09:22:49.637Z,3.30
2022-08-30T09:23:49.609Z,3.00
2022-08-30T09:24:49.620Z,3.00
2022-08-30T09:25:49.592Z,3.10
2022-08-30T09:26:49.621Z,3.10
2022-08-30T09:27:58.632Z,2.80
2022-08-30T09:28:49.622Z,3.40
2022-08-30T09:29:49.573Z,3.10
2022-08-30T09:30:49.937Z,3.30
2022-08-30T09:32:10.163Z,2.90
2022-08-30T09:32:50.747Z,3.30
2022-08-30T09:33:49.492Z,3.30
2022-08-30T09:34:49.513Z,3.20
2022-08-30T09:35:49.558Z,3.10
2022-08-30T09:36:49.428Z,3.50
2022-08-30T09:37:49.540Z,3.20
2022-08-30T09:38:49.405Z,3.20
2022-08-30T09:39:49.399Z,3.10
2022-08-30T09:40:49.457Z,3.00
2022-08-30T09:41:49.499Z,3.10
2022-08-30T09:42:49.352Z,3.10
2022-08-30T09:43:50.046Z,3.20
2022-08-30T09:44:49.407Z,3.40
2022-08-30T09:45:49.795Z,2.70
2022-08-30T09:46:49.326Z,3.10
2022-08-30T09:47:49.312Z,2.90
2022-08-30T09:48:49.302Z,3.40
2022-08-30T09:49:49.265Z,3.20
2022-08-30T09:50:49.580Z,3.40
2022-08-30T09:51:50.214Z,2.90
2022-08-30T09:52:54.617Z,3.50
2022-08-30T09:54:50.197Z,3.30
2022-08-30T09:55:49.222Z,3.30
2022-08-30T09:56:49.254Z,3.50
2022-08-30T09:57:49.328Z,3.50
2022-08-30T09:58:49.187Z,3.50
2022-08-30T09:59:49.113Z,3.20
2022-08-30T10:00:49.379Z,3.20
2022-08-30T10:01:50.148Z,3.20
2022-08-30T10:02:49.431Z,3.30
2022-08-30T10:03:49.193Z,3.20
2022-08-30T10:04:49.143Z,3.00
2022-08-30T10:05:49.463Z,3.30
2022-08-30T10:06:49.192Z,3.50
2022-08-30T10:07:49.115Z,3.20
2022-08-30T10:08:49.134Z,3.20
2022-08-30T10:09:49.017Z,3.60
2022-08-30T10:10:49.002Z,3.60
2022-08-30T10:11:49.013Z,3.10
2022-08-30T10:12:49.117Z,3.60
2022-08-30T10:13:49.033Z,3.40
2022-08-30T10:14:48.951Z,3.00
2022-08-30T10:15:49.932Z,3.30
2022-08-30T10:16:49.189Z,3.20
2022-08-30T10:17:48.912Z,3.00
2022-08-30T10:18:48.992Z,3.30
2022-08-30T10:19:48.891Z,3.00
2022-08-30T10:20:48.941Z,3.30
2022-08-30T10:21:48.954Z,3.30
2022-08-30T10:22:50.330Z,3.60
2022-08-30T10:23:48.887Z,3.60
2022-08-30T10:24:48.830Z,3.50
2022-08-30T10:25:48.794Z,3.30
2022-08-30T10:26:48.800Z,3.50
2022-08-30T10:27:48.846Z,3.50
2022-08-30T10:28:48.763Z,3.50
2022-08-30T10:29:49.030Z,3.20
2022-08-30T10:30:48.731Z,3.50
2022-08-30T10:31:48.741Z,3.70
2022-08-30T10:32:48.743Z,3.40
2022-08-30T10:33:48.698Z,3.80
2022-08-30T10:34:48.769Z,3.70
2022-08-30T10:35:48.726Z,3.30
2022-08-30T10:36:48.734Z,3.40
2022-08-30T10:37:48.799Z,3.90
2022-08-30T10:38:48.639Z,3.20
2022-08-30T10:39:48.598Z,4.00
2022-08-30T10:40:48.720Z,3.70
2022-08-30T10:41:48.612Z,3.50
2022-08-30T10:42:48.630Z,4.20
2022-08-30T10:43:51.099Z,3.80
2022-08-30T10:44:48.607Z,3.70
2022-08-30T10:45:48.583Z,3.40
2022-08-30T10:46:48.536Z,3.70
2022-08-30T10:47:48.519Z,3.50
2022-08-30T10:48:48.526Z,3.50
2022-08-30T10:49:48.525Z,3.80
2022-08-30T10:50:48.506Z,3.70
2022-08-30T10:51:48.565Z,3.70
2022-08-30T10:52:48.447Z,3.90
2022-08-30T10:53:48.548Z,3.40
2022-08-30T10:54:48.468Z,3.40
2022-08-30T10:55:50.196Z,3.40
2022-08-30T10:56:48.417Z,3.40
2022-08-30T10:57:48.416Z,3.50
2022-08-30T10:58:48.375Z,3.30
2022-08-30T10:59:48.368Z,3.90
2022-08-30T11:00:48.380Z,3.70
2022-08-30T11:01:48.370Z,3.40
2022-08-30T11:02:48.345Z,3.90
2022-08-30T11:03:48.345Z,3.80
2022-08-30T11:04:48.356Z,3.40
2022-08-30T11:05:48.306Z,3.30
2022-08-30T11:06:48.264Z,3.50
2022-08-30T11:07:49.283Z,3.20
2022-08-30T11:08:48.272Z,3.50
2022-08-30T11:09:48.272Z,3.10
2022-08-30T11:10:49.849Z,3.10
2022-08-30T11:11:48.244Z,3.20
2022-08-30T11:12:48.230Z,3.40
2022-08-30T11:13:48.206Z,3.50
2022-08-30T11:14:50.212Z,3.30
2022-08-30T11:15:48.215Z,3.60
2022-08-30T11:16:48.435Z,3.40
2022-08-30T11:17:48.132Z,3.60
2022-08-30T11:19:49.123Z,3.70
2022-08-30T11:20:48.153Z,3.50
2022-08-30T11:21:48.121Z,3.60
2022-08-30T11:22:48.101Z,3.20
2022-08-30T11:23:48.091Z,3.50
2022-08-30T11:24:48.100Z,3.40
2022-08-30T11:25:48.077Z,3.30
2022-08-30T11:26:49.111Z,3.60
2022-08-30T11:27:48.030Z,3.60
2022-08-30T11:28:48.021Z,3.90
2022-08-30T11:29:47.980Z,3.30
2022-08-30T11:30:47.982Z,3.20
2022-08-30T11:31:47.960Z,3.70
2022-08-30T11:32:47.951Z,3.80
2022-08-30T11:33:48.631Z,3.90
2022-08-30T11:34:48.015Z,4.10
2022-08-30T11:35:48.764Z,3.70
2022-08-30T11:36:47.949Z,3.60
2022-08-30T11:37:48.143Z,3.30
2022-08-30T11:38:47.938Z,3.30
2022-08-30T11:39:47.850Z,3.50
2022-08-30T11:40:47.868Z,3.30
2022-08-30T11:41:48.277Z,3.50
2022-08-30T11:42:48.277Z,3.60
2022-08-30T11:43:47.810Z,3.90
2022-08-30T11:44:47.798Z,3.80
2022-08-30T11:45:47.876Z,3.30
2022-08-30T11:46:48.008Z,3.60
2022-08-30T11:47:47.817Z,3.40
2022-08-30T11:48:55.173Z,3.40
2022-08-30T11:49:50.224Z,3.70
2022-08-30T11:50:48.452Z,3.70
2022-08-30T11:52:02.953Z,3.70
2022-08-30T11:52:50.077Z,3.60
2022-08-30T11:53:47.719Z,4.00
2022-08-30T11:54:52.308Z,3.50
2022-08-30T11:55:49.586Z,3.60
2022-08-30T11:56:47.686Z,3.30
2022-08-30T11:57:47.648Z,3.50
2022-08-30T11:58:47.653Z,3.30
2022-08-30T11:59:47.620Z,3.50
2022-08-30T12:00:51.439Z,3.70
2022-08-30T12:01:51.202Z,3.60
2022-08-30T12:02:47.792Z,3.90
2022-08-30T12:03:47.691Z,3.40
2022-08-30T12:04:47.617Z,3.80
2022-08-30T12:05:48.201Z,3.30
2022-08-30T12:06:47.659Z,3.60
2022-08-30T12:07:47.566Z,3.60
2022-08-30T12:08:47.509Z,3.50
2022-08-30T12:09:47.496Z,3.40
2022-08-30T12:10:47.555Z,3.70
2022-08-30T12:11:47.475Z,3.80
2022-08-30T12:12:47.659Z,3.90
2022-08-30T12:13:47.499Z,3.90
2022-08-30T12:14:47.554Z,3.50
2022-08-30T12:15:47.490Z,4.00
2022-08-30T12:16:47.455Z,4.30
2022-08-30T12:17:47.497Z,3.90
2022-08-30T12:18:47.437Z,4.00
2022-08-30T12:19:50.340Z,3.50
2022-08-30T12:20:47.362Z,3.70
2022-08-30T12:21:47.376Z,3.70
2022-08-30T12:22:47.365Z,3.40
2022-08-30T12:23:47.307Z,3.30
2022-08-30T12:24:47.347Z,3.80
2022-08-30T12:25:47.321Z,3.40
2022-08-30T12:26:47.403Z,3.40
2022-08-30T12:27:47.679Z,3.40
2022-08-30T12:28:47.534Z,3.90
2022-08-30T12:29:47.275Z,3.80
2022-08-30T12:30:47.253Z,4.00
2022-08-30T12:31:47.261Z,4.10
2022-08-30T12:32:47.229Z,4.00
2022-08-30T12:33:47.220Z,3.70
2022-08-30T12:34:47.246Z,4.00
2022-08-30T12:35:47.273Z,3.70
2022-08-30T12:36:47.253Z,3.60
2022-08-30T12:37:47.152Z,3.80
2022-08-30T12:38:47.215Z,3.70
2022-08-30T12:39:47.113Z,3.70
2022-08-30T12:40:48.205Z,3.90
2022-08-30T12:41:47.150Z,3.90
2022-08-30T12:42:47.092Z,3.70
2022-08-30T12:43:47.062Z,3.50
2022-08-30T12:44:47.174Z,4.10
2022-08-30T12:45:50.714Z,3.60
2022-08-30T12:46:47.116Z,3.80
2022-08-30T12:47:47.030Z,3.70
2022-08-30T12:48:47.090Z,3.60
2022-08-30T12:49:47.028Z,3.60
2022-08-30T12:50:47.081Z,3.70
2022-08-30T12:51:46.959Z,3.70
2022-08-30T12:52:47.028Z,3.80
2022-08-30T12:53:46.951Z,3.40
2022-08-30T12:54:46.953Z,3.70
2022-08-30T12:55:46.955Z,3.80
2022-08-30T12:56:49.240Z,3.60
2022-08-30T12:57:46.940Z,3.80
2022-08-30T12:58:46.890Z,4.40
2022-08-30T12:59:52.998Z,3.80
2022-08-30T13:00:48.099Z,4.10
2022-08-30T13:01:47.312Z,4.00
2022-08-30T13:02:46.848Z,3.80
2022-08-30T13:03:46.848Z,3.60
2022-08-30T13:04:46.808Z,3.50
2022-08-30T13:05:48.374Z,3.80
2022-08-30T13:06:47.816Z,3.70
2022-08-30T13:07:46.818Z,3.50
2022-08-30T13:08:46.767Z,3.60
2022-08-30T13:09:46.901Z,3.40
2022-08-30T13:10:47.188Z,3.60
2022-08-30T13:11:46.711Z,3.70
2022-08-30T13:12:46.728Z,3.70
2022-08-30T13:13:52.241Z,3.70
2022-08-30T13:14:47.696Z,3.80
2022-08-30T13:15:46.688Z,3.50
2022-08-30T13:16:46.776Z,3.70
2022-08-30T13:17:46.670Z,3.70
2022-08-30T13:18:46.645Z,3.90
2022-08-30T13:19:47.305Z,3.80
2022-08-30T13:20:47.518Z,4.20